Santa Fe Municipal Airport
KSAF : rendu visible

Aérodrome :











RETROUVEZ-NOUS SUR...

 
LOGIN :

S'inscrire | Disclaimer

   EN    FR    IT 

 









Légende :    VFR   VFR Marginal   IFR   IFR Intensif   IFR Très Intensif
Visi : 
Plafond : 
>= 8 km
>= 3000ft
5 à 8 km
1000 à 3000 ft
1500m à 5 km
500 à 1000 ft
800 à 1500m
200 à 500 ft
< 800m
< 200 ft
Symboles :   Orages  Brouillard  Fortes neiges  Fortes précipitations  Vent > 20 kt






- Altitude de l'aérodrome : 6348 ft


KSAF - Santa Fe Municipal

DERNIER METAR :
  • 281153Z AUTO 35010G16KT 10SM CLR M02/M08 A3008 RMK AO2 SLP174 T10171078 10011 21022 53016

METARs EXPIRÉS :
  • 281053Z AUTO 35010KT 10SM CLR M01/M07 A3005 RMK AO2 SLP162 T10111072
  • 280953Z AUTO 36012KT 10SM CLR M01/M06 A3004 RMK AO2 SLP153 T10061056

TAF KSAF
Valide du 28 à 12h jusqu'au 29 à 12h UTC


281139Z 2812/2912 35012KT P6SM SKC
FM282000 31009KT P6SM SCT250
FM290200 36007KT P6SM SCT250
FM291000 01010KT P6SM SCT100



MET'MAP, la Météo Aéronautique d'un coup d'oeil ! - Copyright ORBIFLY Décembre 2007 - Disclaimer

ORBIFLY MET'MAP TEAM :

Programmation & Développement : Alexandra Zaïnal
Sur une idée originale de : Baudouin d'Aumeries
Assistance à la programmation : Marc-Olivier Méhu
Soutien technique & logistique : Manuel Goepfert

Contact : metmap@orbifly.com




SOURCES & CREDITS :

   NOAA       Earth
Advisory